Columbia Falls, Montana
Current Conditions -  °F | °C
As of 10:55 AM on Saturday 25 Oct 2014 (Local Time) from KGPI Reporting Station
Clear Clear  
Wind Chill: 42°   Ceiling: Unl
Heat Index: 46°   Visibility: 10mi
Dew Point: 39°   Wind: 7mph
Humidity: 76%   Direction: 40°NE
Pressure: 29.84"   Gusts: NA
Location:  48.37°N, 114.18°W
Report Text: KGPI 251655Z 04006KT 10SM CLR 08/04 A2984 RMK AO2 SLP114 T00780039
Loading
Personal Weather Stations






























Interactive Weather Map
Tropical Storm Tracking
New forecast layout! Learn more

10-Day Weather Forecast

Advertisements
Track Severe Weather on mobile